Time;durP1;ratioP1;P1;durP2;ratioP2;P2;SDS_P1;SDS_P2;PMS_P1;PMS_P2;Temp;Humidity;BMP_temperature;BMP_pressure;BME280_temperature;BME280_humidity;BME280_pressure;Samples;Min_cycle;Max_cycle;Signal;HPM_P1;HPM_P2
2022/10/14 00:02:13;;;;;;;10.83;9.27;;;;;;;13.32;100.00;100449.84;5079319;28;20195;-73
2022/10/14 00:04:38;;;;;;;26.33;18.20;;;;;;;13.31;100.00;100456.81;5073020;28;20254;-73
2022/10/14 00:07:03;;;;;;;24.93;18.73;;;;;;;13.31;100.00;100453.38;5077723;28;20678;-72
2022/10/14 00:09:29;;;;;;;28.23;20.73;;;;;;;13.29;100.00;100455.97;5071255;28;20209;-75
2022/10/14 00:11:54;;;;;;;26.67;20.17;;;;;;;13.29;100.00;100458.56;5073839;28;20282;-72
2022/10/14 00:14:21;;;;;;;20.50;16.23;;;;;;;13.31;100.00;100461.16;5076834;28;20207;-73
2022/10/14 00:16:48;;;;;;;28.33;20.47;;;;;;;13.30;100.00;100462.88;5067510;28;20200;-71
2022/10/14 00:19:14;;;;;;;29.40;21.83;;;;;;;13.31;100.00;100458.56;5071732;28;20683;-73
2022/10/14 00:21:42;;;;;;;23.80;19.60;;;;;;;13.31;100.00;100459.41;5080929;28;20230;-73
2022/10/14 00:24:09;;;;;;;17.30;15.07;;;;;;;13.33;100.00;100455.03;5076760;28;20193;-75
2022/10/14 00:26:37;;;;;;;18.67;15.13;;;;;;;13.36;100.00;100469.72;5074705;28;20268;-72
2022/10/14 00:29:04;;;;;;;25.43;22.70;;;;;;;13.35;100.00;100468.00;5074941;28;20603;-74
2022/10/14 00:31:32;;;;;;;18.83;16.83;;;;;;;13.37;100.00;100474.03;5069178;28;20736;-75
2022/10/14 00:33:58;;;;;;;20.40;17.03;;;;;;;13.38;100.00;100473.16;5069496;28;20890;-73
2022/10/14 00:36:24;;;;;;;17.03;14.70;;;;;;;13.41;100.00;100481.78;5076485;27;20189;-72
2022/10/14 00:38:51;;;;;;;17.30;15.47;;;;;;;13.42;100.00;100477.47;5072360;28;20182;-73
2022/10/14 00:41:23;;;;;;;17.53;15.63;;;;;;;13.43;100.00;100481.78;5068068;28;20213;-72
2022/10/14 00:43:54;;;;;;;15.97;13.27;;;;;;;13.43;100.00;100486.97;5073764;28;20193;-72
2022/10/14 00:46:19;;;;;;;18.10;16.20;;;;;;;13.43;100.00;100481.78;5071725;28;20195;-72
2022/10/14 00:48:44;;;;;;;17.57;15.77;;;;;;;13.44;100.00;100485.22;5071804;28;20196;-73
2022/10/14 00:51:10;;;;;;;15.17;13.70;;;;;;;13.42;100.00;100485.25;5071686;28;20208;-75
2022/10/14 00:53:40;;;;;;;12.20;11.07;;;;;;;13.41;100.00;100476.59;5070647;28;20197;-73
2022/10/14 00:56:07;;;;;;;10.73;9.63;;;;;;;13.41;100.00;100478.34;5078499;28;20193;-74
2022/10/14 00:58:33;;;;;;;13.87;12.40;;;;;;;13.39;100.00;100467.91;5069654;28;20200;-75
2022/10/14 01:00:58;;;;;;;14.60;13.13;;;;;;;13.39;100.00;100467.06;5072101;28;20211;-73
2022/10/14 01:03:24;;;;;;;11.80;10.70;;;;;;;13.37;100.00;100459.31;5068454;28;20184;-73
2022/10/14 01:06:08;;;;;;;10.80;9.80;;;;;;;13.36;100.00;100465.41;5070464;28;20214;-73
2022/10/14 01:08:45;;;;;;;12.00;10.90;;;;;;;13.35;100.00;100462.81;5070500;28;20196;-72
2022/10/14 01:11:31;;;;;;;12.80;11.60;;;;;;;13.36;100.00;100461.91;5075301;28;20206;-73
2022/10/14 01:14:11;;;;;;;11.87;10.57;;;;;;;13.34;100.00;100448.97;5072720;28;20840;-73
2022/10/14 01:16:59;;;;;;;13.80;12.40;;;;;;;13.35;100.00;100450.69;5068729;28;20234;-73
2022/10/14 01:19:50;;;;;;;15.83;14.27;;;;;;;13.33;100.00;100449.84;5071793;28;20208;-73
2022/10/14 01:22:18;;;;;;;18.27;16.47;;;;;;;13.33;100.00;100451.56;5075725;28;20196;-73
2022/10/14 01:24:59;;;;;;;19.60;17.60;;;;;;;13.33;100.00;100449.84;5075649;28;20789;-73
2022/10/14 01:27:38;;;;;;;18.27;16.47;;;;;;;13.34;100.00;100453.28;5082010;28;20188;-73
2022/10/14 01:30:15;;;;;;;14.60;13.20;;;;;;;13.35;100.00;100442.00;5074994;28;20240;-73
2022/10/14 01:33:09;;;;;;;13.40;12.20;;;;;;;13.34;100.00;100437.69;5077714;28;20191;-76
2022/10/14 01:36:06;;;;;;;13.23;12.03;;;;;;;13.33;100.00;100434.25;5081218;28;20187;-74
2022/10/14 01:38:39;;;;;;;14.00;12.60;;;;;;;13.31;100.00;100422.19;5077964;28;20199;-73
2022/10/14 01:41:21;;;;;;;11.57;10.47;;;;;;;13.29;100.00;100424.78;5081905;28;20219;-74
2022/10/14 01:43:49;;;;;;;10.13;9.23;;;;;;;13.25;100.00;100417.91;5069913;28;20191;-72
2022/10/14 01:46:17;;;;;;;10.07;9.17;;;;;;;13.22;100.00;100420.59;5074870;28;20219;-75
2022/10/14 01:48:46;;;;;;;10.20;9.30;;;;;;;13.18;100.00;100421.53;5072942;28;20192;-73
2022/10/14 01:51:16;;;;;;;10.00;9.00;;;;;;;13.17;100.00;100422.41;5077121;28;20691;-74
2022/10/14 01:53:46;;;;;;;9.23;8.33;;;;;;;13.14;100.00;100423.34;5071390;28;20202;-73
2022/10/14 01:56:15;;;;;;;21.30;15.27;;;;;;;13.13;100.00;100433.72;5072821;28;20250;-73
2022/10/14 01:58:42;;;;;;;20.30;15.63;;;;;;;13.11;100.00;100428.56;5073172;28;20196;-73
2022/10/14 02:01:08;;;;;;;15.80;13.23;;;;;;;13.11;100.00;100424.22;5073921;28;20219;-73
2022/10/14 02:03:45;;;;;;;14.63;11.80;;;;;;;13.13;100.00;100425.94;5071783;28;20828;-73
2022/10/14 02:06:20;;;;;;;12.83;11.10;;;;;;;13.13;100.00;100415.53;5070741;28;20211;-74
2022/10/14 02:08:55;;;;;;;11.20;10.10;;;;;;;13.10;100.00;100404.31;5070466;28;20248;-73
2022/10/14 02:11:21;;;;;;;10.23;9.23;;;;;;;13.09;100.00;100400.00;5071613;28;20272;-74
2022/10/14 02:14:20;;;;;;;9.50;8.63;;;;;;;13.07;100.00;100386.22;5072240;28;20688;-73
2022/10/14 02:17:16;;;;;;;8.30;7.50;;;;;;;13.04;100.00;100382.78;5069998;28;20325;-73
2022/10/14 02:19:49;;;;;;;7.67;7.07;;;;;;;12.99;100.00;100385.47;5075648;28;20337;-73
2022/10/14 02:22:47;;;;;;;8.20;7.40;;;;;;;12.92;100.00;100382.13;5078134;28;20200;-73
2022/10/14 02:25:19;;;;;;;8.10;7.40;;;;;;;12.86;100.00;100378.78;5072932;28;20238;-73
2022/10/14 02:27:47;;;;;;;7.40;6.80;;;;;;;12.79;100.00;100375.44;5076977;28;20195;-73
2022/10/14 02:30:14;;;;;;;7.43;6.80;;;;;;;12.77;100.00;100380.66;5074246;28;20213;-75
2022/10/14 02:32:41;;;;;;;8.30;7.50;;;;;;;12.78;100.00;100376.31;5067194;28;20224;-73
2022/10/14 02:35:09;;;;;;;7.10;6.50;;;;;;;12.80;100.00;100379.75;5071254;28;20189;-72
2022/10/14 02:37:35;;;;;;;7.47;6.83;;;;;;;12.82;100.00;100375.38;5070996;28;20246;-73
2022/10/14 02:40:09;;;;;;;7.73;7.10;;;;;;;12.87;100.00;100375.28;5069490;28;20216;-74
2022/10/14 02:42:35;;;;;;;7.97;7.17;;;;;;;12.88;100.00;100369.22;5069398;28;20199;-73
2022/10/14 02:45:00;;;;;;;10.50;9.50;;;;;;;12.90;100.00;100359.66;5072291;28;20236;-73
2022/10/14 02:47:26;;;;;;;10.43;9.43;;;;;;;12.93;100.00;100364.81;5070637;28;20580;-73
2022/10/14 02:49:52;;;;;;;10.40;9.27;;;;;;;12.93;100.00;100354.41;5075539;28;20721;-73
2022/10/14 02:52:18;;;;;;;10.33;9.30;;;;;;;12.95;100.00;100357.81;5069577;28;20198;-74
2022/10/14 02:54:43;;;;;;;8.73;7.93;;;;;;;12.95;100.00;100353.50;5072660;28;20194;-72
2022/10/14 02:57:09;;;;;;;8.37;7.67;;;;;;;12.96;100.00;100350.03;5074593;28;20195;-74
2022/10/14 02:59:34;;;;;;;8.63;7.80;;;;;;;12.98;100.00;100351.72;5075493;28;20213;-73
2022/10/14 03:02:00;;;;;;;8.23;7.43;;;;;;;12.99;100.00;100343.91;5074946;28;20207;-73
2022/10/14 03:04:25;;;;;;;7.63;7.00;;;;;;;13.00;100.00;100342.19;5077055;28;20299;-76
2022/10/14 03:06:51;;;;;;;9.23;8.33;;;;;;;13.01;100.00;100334.34;5079970;28;20322;-74
2022/10/14 03:09:16;;;;;;;22.67;15.97;;;;;;;13.02;100.00;100338.66;5075378;28;20254;-74
2022/10/14 03:11:42;;;;;;;17.10;13.33;;;;;;;13.02;100.00;100328.28;5076183;28;20657;-72
2022/10/14 03:14:07;;;;;;;20.00;14.77;;;;;;;13.03;100.00;100327.38;5079623;28;20225;-74
2022/10/14 03:16:32;;;;;;;23.73;17.53;;;;;;;13.05;100.00;100324.75;5073673;28;20281;-72
2022/10/14 03:18:58;;;;;;;14.37;12.47;;;;;;;13.03;100.00;100317.00;5076793;28;20200;-74
2022/10/14 03:21:23;;;;;;;11.93;10.67;;;;;;;13.02;100.00;100317.00;5075862;28;20261;-73
2022/10/14 03:23:49;;;;;;;10.60;9.50;;;;;;;12.99;100.00;100315.31;5094834;28;20184;-72
2022/10/14 03:26:15;;;;;;;9.50;8.60;;;;;;;12.99;100.00;100311.88;5078663;28;20625;-72
2022/10/14 03:28:40;;;;;;;8.40;7.63;;;;;;;12.97;100.00;100306.69;5079201;28;20191;-73
2022/10/14 03:31:05;;;;;;;8.20;7.50;;;;;;;12.98;100.00;100311.00;5078028;28;20201;-73
2022/10/14 03:33:31;;;;;;;8.17;7.37;;;;;;;12.96;100.00;100308.47;5079256;28;20190;-72
2022/10/14 03:35:56;;;;;;;7.50;6.90;;;;;;;12.96;100.00;100310.19;5075778;28;20672;-75
2022/10/14 03:38:21;;;;;;;7.47;6.77;;;;;;;12.91;100.00;100304.22;5071831;28;20204;-72
2022/10/14 03:40:47;;;;;;;7.23;6.63;;;;;;;12.86;100.00;100300.84;5066645;28;20237;-74
2022/10/14 03:43:12;;;;;;;7.13;6.43;;;;;;;12.79;100.00;100300.94;5073516;28;20273;-72
2022/10/14 03:45:37;;;;;;;7.63;7.00;;;;;;;12.75;100.00;100301.03;5074401;28;20576;-73
2022/10/14 03:48:03;;;;;;;7.13;6.43;;;;;;;12.74;100.00;100300.19;5076535;28;20698;-72
2022/10/14 03:50:28;;;;;;;7.40;6.70;;;;;;;12.73;100.00;100295.00;5075994;28;20223;-72
2022/10/14 03:52:53;;;;;;;7.47;6.87;;;;;;;12.72;100.00;100290.69;5074880;28;20267;-72
2022/10/14 03:55:19;;;;;;;7.33;6.60;;;;;;;12.70;100.00;100289.91;5070578;28;20216;-73
2022/10/14 03:57:44;;;;;;;7.90;7.23;;;;;;;12.67;100.00;100285.59;5074075;28;20212;-73
2022/10/14 04:00:11;;;;;;;7.60;7.00;;;;;;;12.65;100.00;100283.03;5072019;28;20209;-74
2022/10/14 04:02:36;;;;;;;8.33;6.87;;;;;;;12.64;100.00;100278.72;5074595;28;20934;-73
2022/10/14 04:05:02;;;;;;;8.20;7.50;;;;;;;12.64;100.00;100283.06;5076101;28;20248;-73
2022/10/14 04:07:27;;;;;;;7.30;6.70;;;;;;;12.66;100.00;100278.69;5074409;28;20203;-74
2022/10/14 04:09:53;;;;;;;8.80;8.00;;;;;;;12.68;100.00;100286.47;5073543;28;20203;-74
2022/10/14 04:12:18;;;;;;;8.30;7.60;;;;;;;12.68;100.00;100279.53;5070780;28;20187;-73
2022/10/14 04:14:46;;;;;;;7.60;7.00;;;;;;;12.67;100.00;100279.56;5068068;28;20188;-74
2022/10/14 04:17:12;;;;;;;8.90;8.10;;;;;;;12.64;100.00;100267.47;5070188;28;20198;-72
2022/10/14 04:19:37;;;;;;;7.93;7.33;;;;;;;12.65;100.00;100269.19;5075839;28;20214;-72
2022/10/14 04:22:02;;;;;;;8.03;7.43;;;;;;;12.65;100.00;100259.69;5072544;28;20216;-73
2022/10/14 04:24:28;;;;;;;8.37;7.57;;;;;;;12.64;100.00;100260.56;5071646;28;20211;-73
2022/10/14 04:26:54;;;;;;;8.10;7.40;;;;;;;12.64;100.00;100257.97;5073635;28;20237;-74
2022/10/14 04:29:19;;;;;;;7.43;6.77;;;;;;;12.63;100.00;100257.97;5071416;28;20216;-74
2022/10/14 04:31:44;;;;;;;8.00;7.30;;;;;;;12.59;100.00;100275.34;5073389;28;20316;-74
2022/10/14 04:34:11;;;;;;;7.23;6.63;;;;;;;12.55;100.00;100265.06;5071747;28;20224;-74
2022/10/14 04:36:37;;;;;;;8.30;7.60;;;;;;;12.49;100.00;100263.41;5072756;28;20664;-73
2022/10/14 04:39:02;;;;;;;7.77;7.13;;;;;;;12.43;100.00;100258.31;5071671;28;20194;-72
2022/10/14 04:41:28;;;;;;;8.40;7.60;;;;;;;12.40;100.00;100250.63;5070653;28;20230;-72
2022/10/14 04:43:53;;;;;;;7.57;6.87;;;;;;;12.34;100.00;100254.16;5073086;28;20188;-74
2022/10/14 04:46:19;;;;;;;7.73;7.07;;;;;;;12.28;100.00;100251.66;5069463;28;20202;-72
2022/10/14 04:48:46;;;;;;;7.50;6.90;;;;;;;12.23;100.00;100254.34;5073919;28;20270;-73
2022/10/14 04:51:11;;;;;;;8.07;7.37;;;;;;;12.16;100.00;100243.22;5074305;28;20242;-75
2022/10/14 04:53:37;;;;;;;7.65;7.05;;;;;;;12.13;100.00;100242.38;5028011;28;1051515;-74
2022/10/14 04:56:02;;;;;;;8.23;7.50;;;;;;;12.10;100.00;100232.91;5072803;28;20265;-73
2022/10/14 04:58:27;;;;;;;7.70;7.00;;;;;;;12.07;100.00;100227.78;5078014;28;20196;-73
2022/10/14 05:00:54;;;;;;;8.60;7.83;;;;;;;12.04;100.00;100220.03;5075253;28;20851;-72
2022/10/14 05:03:19;;;;;;;8.77;7.97;;;;;;;12.01;100.00;100210.56;5075684;28;20270;-73
2022/10/14 05:05:45;;;;;;;8.40;7.80;;;;;;;12.01;100.00;100204.56;5069772;28;20316;-74
2022/10/14 05:08:10;;;;;;;8.40;7.67;;;;;;;12.01;100.00;100210.56;5075229;28;20192;-73
2022/10/14 05:10:35;;;;;;;8.17;7.57;;;;;;;12.04;100.00;100213.13;5077443;28;20211;-74
2022/10/14 05:13:01;;;;;;;8.63;7.87;;;;;;;12.09;100.00;100222.59;5079303;28;20556;-74
2022/10/14 05:15:26;;;;;;;8.30;7.60;;;;;;;12.12;100.00;100210.41;5072816;28;20689;-74
2022/10/14 05:17:51;;;;;;;7.80;7.10;;;;;;;12.16;100.00;100206.03;5071571;28;20243;-73
2022/10/14 05:20:16;;;;;;;8.40;7.70;;;;;;;12.20;100.00;100211.13;5077065;28;20202;-75
2022/10/14 05:22:45;;;;;;;8.33;7.57;;;;;;;12.25;100.00;100202.41;5072232;28;20265;-73
2022/10/14 05:25:10;;;;;;;8.40;7.60;;;;;;;12.27;100.00;100193.72;5076618;28;20202;-74
2022/10/14 05:27:36;;;;;;;9.00;7.77;;;;;;;12.29;100.00;100181.56;5079437;28;20193;-76
2022/10/14 05:30:04;;;;;;;7.97;7.37;;;;;;;12.32;100.00;100183.28;5072881;28;20234;-73
2022/10/14 05:32:29;;;;;;;7.30;6.70;;;;;;;12.34;100.00;100166.78;5080287;28;20193;-75
2022/10/14 05:34:55;;;;;;;7.60;7.00;;;;;;;12.34;100.00;100169.38;5070475;28;20178;-74
2022/10/14 05:37:20;;;;;;;8.17;7.47;;;;;;;12.37;100.00;100180.59;5073225;28;20214;-73
2022/10/14 05:39:45;;;;;;;7.47;6.87;;;;;;;12.39;100.00;100184.03;5071928;28;20625;-72
2022/10/14 05:42:11;;;;;;;7.07;6.47;;;;;;;12.41;100.00;100177.91;5075487;28;20275;-74
2022/10/14 05:44:36;;;;;;;7.53;6.83;;;;;;;12.44;100.00;100187.38;5069287;28;20211;-73
2022/10/14 05:47:01;;;;;;;7.90;7.20;;;;;;;12.45;100.00;100189.06;5079064;28;20750;-73
2022/10/14 05:49:27;;;;;;;6.87;6.37;;;;;;;12.48;100.00;100199.41;5079155;28;20700;-74
2022/10/14 05:51:52;;;;;;;7.00;6.40;;;;;;;12.49;100.00;100196.78;5074162;28;20188;-73
2022/10/14 05:54:17;;;;;;;7.57;6.63;;;;;;;12.49;100.00;100188.16;5074792;28;20192;-73
2022/10/14 05:56:43;;;;;;;7.13;6.43;;;;;;;12.47;100.00;100190.78;5071967;28;20743;-73
2022/10/14 05:59:09;;;;;;;7.20;6.50;;;;;;;12.46;100.00;100193.38;5072729;28;20218;-72
2022/10/14 06:01:35;;;;;;;7.77;7.03;;;;;;;12.45;100.00;100192.56;5075637;28;20239;-72
2022/10/14 06:04:01;;;;;;;7.37;6.70;;;;;;;12.47;100.00;100198.56;5078913;28;20986;-73
2022/10/14 06:06:26;;;;;;;8.07;7.10;;;;;;;12.49;100.00;100199.38;5072448;28;20257;-72
2022/10/14 06:08:53;;;;;;;8.90;8.10;;;;;;;12.53;100.00;100197.59;5077874;28;20200;-73
2022/10/14 06:11:19;;;;;;;8.60;7.87;;;;;;;12.55;100.00;100208.81;5078675;28;20200;-72
2022/10/14 06:13:44;;;;;;;9.07;8.17;;;;;;;12.56;100.00;100200.13;5072140;28;20191;-72
2022/10/14 06:16:09;;;;;;;9.27;8.37;;;;;;;12.61;100.00;100200.06;5068632;28;20182;-73
2022/10/14 06:18:36;;;;;;;8.43;7.57;;;;;;;12.62;100.00;100202.59;5074416;28;20190;-73
2022/10/14 06:21:01;;;;;;;7.87;7.13;;;;;;;12.70;100.00;100201.63;5074155;28;20265;-73
2022/10/14 06:23:27;;;;;;;7.70;7.10;;;;;;;12.81;100.00;100203.09;5071930;28;20648;-72
2022/10/14 06:25:52;;;;;;;7.77;7.07;;;;;;;12.94;100.00;100189.88;5078785;28;20291;-73
2022/10/14 06:28:17;;;;;;;6.63;6.13;;;;;;;13.04;100.00;100196.59;5080824;28;20563;-72
2022/10/14 06:30:53;;;;;;;6.60;6.03;;;;;;;13.13;100.00;100210.28;5076955;28;20295;-73
2022/10/14 06:33:19;;;;;;;7.00;6.30;;;;;;;13.20;100.00;100201.47;5076012;28;20197;-72
2022/10/14 06:35:45;;;;;;;7.47;6.77;;;;;;;13.27;100.00;100203.91;5070823;28;20180;-72
2022/10/14 06:38:10;;;;;;;7.50;6.80;;;;;;;13.36;100.00;100196.78;5076282;28;20959;-73
2022/10/14 06:40:36;;;;;;;7.87;7.07;;;;;;;13.46;100.00;100200.09;5074164;28;20210;-73
2022/10/14 06:43:02;;;;;;;7.83;6.40;;;;;;;13.57;100.00;100196.34;5074534;28;20191;-73
2022/10/14 06:45:27;;;;;;;6.60;6.00;;;;;;;13.65;100.00;100188.38;5072789;28;20205;-72
2022/10/14 06:47:53;;;;;;;6.07;5.57;;;;;;;13.74;100.00;100187.31;5079567;28;20193;-74
2022/10/14 06:50:18;;;;;;;5.93;5.40;;;;;;;13.78;100.00;100178.53;5071408;28;20213;-74
2022/10/14 06:52:44;;;;;;;5.67;5.17;;;;;;;13.80;100.00;100181.94;5069367;28;20212;-72
2022/10/14 06:55:10;;;;;;;6.17;5.40;;;;;;;13.84;100.00;100177.56;5071110;28;20206;-73
2022/10/14 06:57:35;;;;;;;6.37;5.77;;;;;;;13.82;100.00;100171.53;5066755;28;20191;-72
2022/10/14 07:00:00;;;;;;;6.33;5.73;;;;;;;13.87;100.00;100175.72;5075371;28;20360;-75
2022/10/14 07:02:26;;;;;;;6.00;5.50;;;;;;;13.92;100.00;100179.94;5074870;28;20192;-72
2022/10/14 07:04:51;;;;;;;5.70;5.20;;;;;;;13.96;100.00;100182.44;5074106;28;20227;-72
2022/10/14 07:07:16;;;;;;;7.00;5.10;;;;;;;13.95;100.00;100179.84;5073605;28;20187;-73
2022/10/14 07:09:42;;;;;;;5.70;5.10;;;;;;;13.98;100.00;100178.06;5072721;28;20201;-73
2022/10/14 07:12:07;;;;;;;5.97;5.47;;;;;;;14.02;100.00;100184.03;5074995;28;20195;-73
2022/10/14 07:14:32;;;;;;;6.43;5.37;;;;;;;14.01;100.00;100187.53;5072238;28;20189;-72
2022/10/14 07:16:59;;;;;;;6.00;5.30;;;;;;;13.98;100.00;100180.66;5073838;28;20195;-73
2022/10/14 07:19:24;;;;;;;5.70;5.10;;;;;;;13.98;100.00;100180.66;5073071;28;20201;-73
2022/10/14 07:21:49;;;;;;;5.70;5.20;;;;;;;14.01;100.00;100185.75;5072822;28;20206;-73
2022/10/14 07:24:15;;;;;;;5.13;4.73;;;;;;;14.05;100.00;100180.50;5070429;28;20833;-74
2022/10/14 07:26:40;;;;;;;5.10;4.70;;;;;;;14.07;100.00;100179.53;5069245;28;20194;-73
2022/10/14 07:29:05;;;;;;;5.27;4.77;;;;;;;14.12;100.00;100179.47;5069696;28;20192;-73
2022/10/14 07:31:31;;;;;;;6.20;5.63;;;;;;;14.17;100.00;100181.03;5074454;28;20201;-72
2022/10/14 07:33:57;;;;;;;5.70;5.20;;;;;;;14.26;100.00;100190.38;5075048;28;20684;-74
2022/10/14 07:36:22;;;;;;;5.93;5.37;;;;;;;14.33;100.00;100189.28;5070479;28;20194;-73
2022/10/14 07:38:48;;;;;;;5.50;4.77;;;;;;;14.38;100.00;100191.78;5068213;28;21798;-72
2022/10/14 07:41:17;;;;;;;5.03;4.37;;;;;;;14.44;100.00;100194.22;5069809;28;20316;-74
2022/10/14 07:43:52;;;;;;;5.47;5.03;;;;;;;14.50;100.00;100198.41;5073219;28;20182;-73
2022/10/14 07:46:31;;;;;;;5.90;5.40;;;;;;;14.56;100.00;100200.00;5073220;28;20205;-74
2022/10/14 07:48:57;;;;;;;5.80;5.30;;;;;;;14.57;100.00;100199.97;5084319;28;20185;-73
2022/10/14 07:51:23;;;;;;;6.07;5.47;;;;;;;14.62;100.00;100199.84;5071531;28;20319;-73
2022/10/14 07:53:49;;;;;;;5.30;4.90;;;;;;;14.67;100.00;100200.56;5079086;28;20226;-73
2022/10/14 07:56:14;;;;;;;5.87;5.37;;;;;;;14.77;100.00;100194.25;5073008;28;20857;-73
2022/10/14 07:58:40;;;;;;;5.60;5.17;;;;;;;14.85;100.00;100201.84;5077699;28;20210;-75
2022/10/14 08:01:06;;;;;;;5.20;4.80;;;;;;;14.95;100.00;100199.84;5079643;28;20248;-73
2022/10/14 08:03:31;;;;;;;5.20;4.70;;;;;;;15.03;100.00;100199.63;5084186;28;20843;-73
2022/10/14 08:06:02;;;;;;;5.23;4.73;;;;;;;15.08;100.00;100202.94;5078345;28;20297;-73
2022/10/14 08:08:28;;;;;;;4.90;4.40;;;;;;;15.11;100.00;100196.78;5075757;28;20259;-73
2022/10/14 08:11:07;;;;;;;5.13;4.63;;;;;;;15.21;100.00;100204.28;5076964;28;20210;-73
2022/10/14 08:13:33;;;;;;;4.80;4.40;;;;;;;15.32;100.00;100198.75;5076670;28;20224;-73
2022/10/14 08:15:58;;;;;;;4.70;4.30;;;;;;;15.37;100.00;100193.38;5076006;28;20185;-73
2022/10/14 08:18:25;;;;;;;4.67;4.23;;;;;;;15.44;100.00;100202.75;5077935;28;20190;-74
2022/10/14 08:20:50;;;;;;;5.47;4.27;;;;;;;15.53;100.00;100191.19;5077919;28;20220;-73
2022/10/14 08:23:16;;;;;;;5.37;4.30;;;;;;;15.56;100.00;100201.53;5078630;28;20189;-73
2022/10/14 08:25:42;;;;;;;4.43;4.03;;;;;;;15.61;100.00;100203.97;5079373;28;20217;-74
2022/10/14 08:28:08;;;;;;;5.80;4.50;;;;;;;15.72;100.00;100209.69;5073736;28;20212;-73
2022/10/14 08:30:33;;;;;;;5.90;3.80;;;;;;;15.82;100.00;100203.28;5077886;28;20320;-74
2022/10/14 08:32:59;;;;;;;4.70;4.27;;;;;;;15.88;100.00;100204.03;5079900;28;20499;-72
2022/10/14 08:35:24;;;;;;;4.23;3.83;;;;;;;15.91;100.00;100209.16;5071448;28;20191;-72
2022/10/14 08:37:59;;;;;;;4.80;4.13;;;;;;;15.93;100.00;100196.91;5077882;28;20194;-73
2022/10/14 08:40:28;;;;;;;4.43;4.10;;;;;;;15.96;100.00;100199.41;5078128;28;20210;-74
2022/10/14 08:43:02;;;;;;;4.80;4.40;;;;;;;16.01;100.00;100202.72;5079352;28;20269;-73
2022/10/14 08:45:34;;;;;;;5.00;4.60;;;;;;;16.07;100.00;100201.66;5076143;28;20210;-72
2022/10/14 08:48:07;;;;;;;5.57;5.07;;;;;;;16.10;100.00;100193.72;5080707;28;20728;-75
2022/10/14 08:50:40;;;;;;;4.70;4.33;;;;;;;16.19;100.00;100188.19;5071864;28;20300;-72
2022/10/14 08:53:11;;;;;;;5.10;4.60;;;;;;;16.26;100.00;100189.69;5073728;28;20209;-73
2022/10/14 08:55:40;;;;;;;5.03;4.53;;;;;;;16.29;100.00;100179.16;5074539;28;20256;-72
2022/10/14 08:58:23;;;;;;;5.33;4.83;;;;;;;16.33;100.00;100179.06;5073940;28;20615;-73
2022/10/14 09:00:51;;;;;;;5.30;4.50;;;;;;;16.37;100.00;100178.88;5075049;28;20293;-72
2022/10/14 09:03:22;;;;;;;4.70;4.27;;;;;;;16.46;100.00;100175.94;5081306;28;20305;-71
2022/10/14 09:06:04;;;;;;;5.63;4.73;;;;;;;16.55;100.00;100179.16;5073108;28;20293;-72
2022/10/14 09:08:39;;;;;;;5.40;4.90;;;;;;;16.63;100.00;100182.34;5075430;28;20192;-73
2022/10/14 09:11:10;;;;;;;5.30;4.80;;;;;;;16.65;100.00;100177.03;5078917;28;20216;-72
2022/10/14 09:13:39;;;;;;;7.23;4.83;;;;;;;16.74;100.00;100168.88;5076659;28;20241;-72
2022/10/14 09:16:16;;;;;;;5.27;4.77;;;;;;;16.86;100.00;100170.22;5076261;28;20273;-72
2022/10/14 09:18:50;;;;;;;5.07;4.57;;;;;;;16.99;100.00;100176.72;5076409;28;20200;-72
2022/10/14 09:21:28;;;;;;;5.53;5.03;;;;;;;17.01;100.00;100174.91;5078476;28;20615;-72
2022/10/14 09:24:01;;;;;;;5.60;5.10;;;;;;;17.11;100.00;100180.59;5078671;28;20178;-72
2022/10/14 09:26:54;;;;;;;4.70;4.20;;;;;;;17.24;100.00;100175.75;5077773;28;20741;-72
2022/10/14 09:29:24;;;;;;;5.43;4.93;;;;;;;17.24;100.00;100169.69;5078136;28;20319;-74
2022/10/14 09:31:51;;;;;;;4.97;4.30;;;;;;;17.27;100.00;100162.56;5079225;28;20246;-73
2022/10/14 09:34:19;;;;;;;4.93;4.20;;;;;;;17.30;100.00;100167.69;5078555;28;20184;-73
2022/10/14 09:36:49;;;;;;;4.73;4.33;;;;;;;17.33;100.00;100167.56;5079094;28;20738;-73
2022/10/14 09:39:15;;;;;;;4.80;4.40;;;;;;;17.36;100.00;100162.19;5079187;28;20183;-73
2022/10/14 09:41:41;;;;;;;4.90;4.50;;;;;;;17.41;100.00;100158.56;5078821;28;20239;-73
2022/10/14 09:44:20;;;;;;;4.70;4.20;;;;;;;17.49;100.00;100159.97;5076737;28;20191;-73
2022/10/14 09:46:52;;;;;;;4.10;3.80;;;;;;;17.55;100.00;100163.22;5081786;28;20193;-74
2022/10/14 09:49:24;;;;;;;5.13;4.63;;;;;;;17.66;100.00;100154.03;5077519;28;20681;-72
2022/10/14 09:51:50;;;;;;;4.20;3.77;;;;;;;17.74;100.00;100150.28;5077294;28;20215;-75
2022/10/14 09:54:23;;;;;;;4.57;3.90;;;;;;;17.88;100.00;100145.31;5076098;28;20197;-74
2022/10/14 09:56:58;;;;;;;5.93;4.60;;;;;;;17.97;100.00;100150.19;5075464;28;20196;-74
2022/10/14 09:59:23;;;;;;;4.50;4.10;;;;;;;17.91;100.00;100154.81;5072175;28;20204;-73
2022/10/14 10:01:52;;;;;;;6.47;4.03;;;;;;;17.90;100.00;100158.34;5071275;28;20185;-75
2022/10/14 10:04:45;;;;;;;4.30;3.73;;;;;;;17.86;100.00;100152.38;5070425;28;20634;-73
2022/10/14 10:07:26;;;;;;;4.07;3.67;;;;;;;17.68;100.00;100154.84;5077513;28;20189;-73
2022/10/14 10:10:00;;;;;;;6.63;4.23;;;;;;;17.61;100.00;100155.16;5075678;28;20224;-73
2022/10/14 10:12:31;;;;;;;4.30;3.37;;;;;;;17.43;100.00;100154.97;5073959;28;20319;-74
2022/10/14 10:14:58;;;;;;;7.13;3.70;;;;;;;17.28;100.00;100148.59;5068430;28;20575;-73
2022/10/14 10:17:26;;;;;;;4.30;3.50;;;;;;;17.13;100.00;100138.72;5069454;28;20196;-73
2022/10/14 10:20:06;;;;;;;4.03;3.37;;;;;;;17.00;100.00;100133.09;5069635;28;20215;-72
2022/10/14 10:22:35;;;;;;;3.67;3.37;;;;;;;16.91;100.00;100124.69;5066866;28;20187;-73
2022/10/14 10:25:01;;;;;;;4.10;3.30;;;;;;;16.91;100.00;100126.44;5073893;28;20212;-73
2022/10/14 10:27:38;;;;;;;4.30;3.90;;;;;;;16.88;100.00;100119.56;5068832;28;20186;-72
2022/10/14 10:30:16;;;;;;;4.23;3.83;;;;;;;16.90;100.00;100116.88;5071719;28;20660;-73
2022/10/14 10:33:10;;;;;;;4.00;3.60;;;;;;;16.96;100.00;100111.47;5068330;28;20884;-75
2022/10/14 10:36:19;;;;;;;3.87;3.33;;;;;;;17.09;100.00;100103.16;5067595;28;20203;-73
2022/10/14 10:38:54;;;;;;;3.80;3.40;;;;;;;17.25;100.00;100111.22;5063788;28;20203;-73
2022/10/14 10:41:25;;;;;;;4.17;3.87;;;;;;;17.39;100.00;100102.84;5071180;28;20294;-72
2022/10/14 10:44:11;;;;;;;4.80;3.50;;;;;;;17.52;100.00;100091.81;5071360;28;20203;-71
2022/10/14 10:46:54;;;;;;;4.30;3.87;;;;;;;17.57;100.00;100078.53;5077628;28;20239;-72
2022/10/14 10:49:40;;;;;;;4.93;3.30;;;;;;;17.59;100.00;100071.50;5075412;28;20192;-73
2022/10/14 10:52:33;;;;;;;3.37;3.13;;;;;;;17.70;100.00;100068.41;5072763;28;20628;-72
2022/10/14 10:55:12;;;;;;;3.33;3.03;;;;;;;17.87;100.00;100069.44;5069621;28;20670;-73
2022/10/14 10:58:09;;;;;;;3.67;3.37;;;;;;;18.09;100.00;100064.16;5071529;28;20242;-73
2022/10/14 11:00:53;;;;;;;3.43;3.13;;;;;;;18.32;100.00;100055.28;5068975;28;20801;-72
2022/10/14 11:03:27;;;;;;;3.70;3.40;;;;;;;18.63;100.00;100056.50;5077192;28;20233;-74
2022/10/14 11:06:05;;;;;;;3.07;2.77;;;;;;;18.98;100.00;100050.59;5075863;28;20208;-72
2022/10/14 11:12:02;;;;;;;3.37;3.07;;;;;;;19.34;100.00;100047.94;5076060;28;20267;-72
2022/10/14 11:14:45;;;;;;;3.27;3.03;;;;;;;19.38;100.00;100042.50;5072653;28;20612;-72
2022/10/14 11:17:16;;;;;;;2.77;2.57;;;;;;;19.43;100.00;100041.38;5075076;28;20199;-73
2022/10/14 11:20:07;;;;;;;2.70;2.50;;;;;;;19.53;100.00;100041.75;5075150;28;20213;-75
2022/10/14 11:22:45;;;;;;;3.03;2.73;;;;;;;19.63;100.00;100039.50;5075478;28;20301;-72
2022/10/14 11:25:40;;;;;;;3.87;2.30;;;;;;;19.71;100.00;100037.34;5076316;28;20369;-73
2022/10/14 11:28:17;;;;;;;4.63;2.90;;;;;;;19.84;100.00;100029.69;5078191;28;20696;-72
2022/10/14 11:31:10;;;;;;;2.30;2.10;;;;;;;19.97;100.00;100027.31;5084796;28;20200;-72